Terminal Aerodrome Forecast
Issued by NWS

Home | Current Version | Previous Version | Graphics & Text | Print | Product List | Glossary On
Versions: 1 2 3 4 5 6 7 8 9 10 11 12 13 14 15 16 17
248
FTUS42 KMHX 270530
TAFOAJ
TAF
KOAJ 270530Z 2706/2806 00000KT P6SM FEW250
     FM270900 00000KT 3SM BR FEW080
      TEMPO 2709/2711 1SM BR
     FM271200 00000KT P6SM SCT080
     FM271500 20006KT P6SM SCT070
      AMD LTD TO CLD VIS AND WIND=

USA.gov is the U.S. government's official web portal to all federal, state and local government web resources and services.